Huron Regional Airport Huron US
ICAO: KHON
IATA: HON
Category: Medium
Scheduled Services: Yes

Elevation: 1289 ft
TransAlt. 18000 ft.

Airport Communications:
ASOS:118.125
MINNEAPOLIS CNTR:126.25
CTAF:123.6
RDO:122.1
RDO:122.2
UNICOM:123

KHON Zoom In..

Runways:

(A) RW 12 length 7201 ft width 100 ft
ILS 110.30 / hdg 121

(B) RW 17 length 5000 ft width 75 ft
---- / hdg 173

(C) RW 30 length 7201 ft width 100 ft
---- / hdg 301

(D) RW 35 length 5000 ft width 75 ft
---- / hdg 353

Location; KHON
Day. 24 / Time. 12.55 Zulu
* Altimeter: 29.91
* Temperature: 20° c. 68°f.
* Wind from: 160° Speed 06 kn.
Dewpoint: 15° c.
Visibility: 10 Statute Miles.
Clouds: Clear (automated report).

KHON 241255Z AUTO 16006KT 10SM CLR 20/15 A2991 RMK AO2 SLP119 T02000150


Wind From 160°
Speed 06 kn.

 
 
jpsmedia.com for Web Design SOUNDCLOUD worldairports.se 2018   terms of use